Nearby METAR Reports

 

KLEX - Lexington, Kentucky, USA
Distance from station: WNW 7mi, 11km
Updated: Mon, 25-Sep-2017 7:54pm EDT
Clear
Clear
 Wind from E
Wind: E 5 mph , 7 km/h
Temperature: 81°F , 27°C
Heat Index: 82°F , 28°C
Dew Point: 63°F , 17°C
Humidity: 54%
Barometer: 29.99 inHg , 1015.6 hPa
Clouds: Clear
Visibility: 10 miles , 16 km
2017/09/25 23:54 KLEX 252354Z 10004KT 10SM CLR 27/17 A2999 RMK AO2 SLP147 T02670172 10311 20267 56005
KFFT - Frankfort, Kentucky, USA
Distance from station: WNW 26mi, 42km
Updated: Mon, 25-Sep-2017 7:53pm EDT
Clear
Clear
 Wind from E
Wind: E 3 mph , 6 km/h
Temperature: 79°F , 26°C
Dew Point: 63°F , 17°C
Humidity: 58%
Barometer: 29.97 inHg , 1014.9 hPa
Clouds: Clear
Visibility: 10 miles , 16 km
2017/09/25 23:53 KFFT 252353Z AUTO 09003KT 10SM CLR 26/17 A2997 RMK AO2 SLP142 T02610167 10322 20261 57004
 
KIOB - Mount Sterling, Kentucky, USA
Distance from station: E 27mi, 44km
Updated: Mon, 25-Sep-2017 7:35pm EDT
Clear
Clear
 Wind from calm
Wind: Calm
Temperature: 77°F , 25°C
Dew Point: 64°F , 18°C
Humidity: 65%
Barometer: 30.01 inHg , 1016.3 hPa
Clouds: Clear
Visibility: 10 miles , 16 km
2017/09/25 23:35 KIOB 252335Z AUTO 00000KT 10SM CLR 25/18 A3001 RMK AO2 PWINO
KDVK - Danville, Kentucky, USA
Distance from station: SSW 33mi, 53km
Updated: Mon, 25-Sep-2017 7:35pm EDT
Clear
Clear
 Wind from calm
Wind: Calm
Temperature: 73°F , 23°C
Dew Point: 63°F , 17°C
Humidity: 69%
Barometer: 30.00 inHg , 1015.9 hPa
Clouds: Clear
Visibility: 10 miles , 16 km
2017/09/25 23:35 KDVK 252335Z AUTO 00000KT 10SM CLR 23/17 A3000 RMK AO2